sensor_id;sensor_type;location;lat;lon;timestamp;pressure;altitude;pressure_sealevel;temperature;humidity
57990;BME280;58373;51.824;5.564;2024-02-21T00:02:09;102148.03;;;7.70;100.00
57990;BME280;58373;51.824;5.564;2024-02-21T00:04:34;102147.41;;;7.65;100.00
57990;BME280;58373;51.824;5.564;2024-02-21T00:07:01;102149.06;;;7.66;100.00
57990;BME280;58373;51.824;5.564;2024-02-21T00:09:26;102150.91;;;7.64;100.00
57990;BME280;58373;51.824;5.564;2024-02-21T00:11:51;102145.28;;;7.73;100.00
57990;BME280;58373;51.824;5.564;2024-02-21T00:14:17;102140.41;;;7.67;100.00
57990;BME280;58373;51.824;5.564;2024-02-21T00:16:42;102135.25;;;7.67;100.00
57990;BME280;58373;51.824;5.564;2024-02-21T00:19:07;102116.44;;;7.65;100.00
57990;BME280;58373;51.824;5.564;2024-02-21T00:21:32;102118.09;;;7.66;100.00
57990;BME280;58373;51.824;5.564;2024-02-21T00:23:57;102118.09;;;7.66;100.00
57990;BME280;58373;51.824;5.564;2024-02-21T00:26:22;102113.09;;;7.63;100.00
57990;BME280;58373;51.824;5.564;2024-02-21T00:28:48;102105.78;;;7.71;100.00
57990;BME280;58373;51.824;5.564;2024-02-21T00:31:13;102109.28;;;7.70;100.00
57990;BME280;58373;51.824;5.564;2024-02-21T00:33:39;102113.84;;;7.65;100.00
57990;BME280;58373;51.824;5.564;2024-02-21T00:36:04;102113.63;;;7.69;100.00
57990;BME280;58373;51.824;5.564;2024-02-21T00:38:29;102102.22;;;7.91;100.00
57990;BME280;58373;51.824;5.564;2024-02-21T00:40:54;102088.63;;;7.70;100.00
57990;BME280;58373;51.824;5.564;2024-02-21T00:43:19;102076.63;;;7.69;100.00
57990;BME280;58373;51.824;5.564;2024-02-21T00:45:48;102076.78;;;7.66;100.00
57990;BME280;58373;51.824;5.564;2024-02-21T00:48:13;102068.28;;;7.64;100.00
57990;BME280;58373;51.824;5.564;2024-02-21T00:50:41;102071.78;;;7.63;100.00
57990;BME280;58373;51.824;5.564;2024-02-21T00:53:06;102066.63;;;7.63;100.00
57990;BME280;58373;51.824;5.564;2024-02-21T00:55:31;102076.94;;;7.63;100.00
57990;BME280;58373;51.824;5.564;2024-02-21T00:57:56;102071.00;;;7.61;100.00
57990;BME280;58373;51.824;5.564;2024-02-21T01:00:22;102079.66;;;7.60;100.00
57990;BME280;58373;51.824;5.564;2024-02-21T01:02:47;102076.94;;;7.63;100.00
57990;BME280;58373;51.824;5.564;2024-02-21T01:05:12;102071.78;;;7.63;100.00
57990;BME280;58373;51.824;5.564;2024-02-21T01:07:37;102084.81;;;7.60;100.00
57990;BME280;58373;51.824;5.564;2024-02-21T01:10:03;102079.75;;;7.58;100.00
57990;BME280;58373;51.824;5.564;2024-02-21T01:12:28;102072.84;;;7.59;100.00
57990;BME280;58373;51.824;5.564;2024-02-21T01:14:53;102071.16;;;7.58;100.00
57990;BME280;58373;51.824;5.564;2024-02-21T01:17:18;102070.34;;;7.57;100.00
57990;BME280;58373;51.824;5.564;2024-02-21T01:22:10;102055.91;;;7.53;100.00
57990;BME280;58373;51.824;5.564;2024-02-21T01:24:35;102052.78;;;7.64;100.00
57990;BME280;58373;51.824;5.564;2024-02-21T01:27:00;102047.31;;;7.53;100.00
57990;BME280;58373;51.824;5.564;2024-02-21T01:29:25;102044.56;;;7.56;100.00
57990;BME280;58373;51.824;5.564;2024-02-21T01:31:51;102048.25;;;7.52;100.00
57990;BME280;58373;51.824;5.564;2024-02-21T01:34:16;102055.19;;;7.50;100.00
57990;BME280;58373;51.824;5.564;2024-02-21T01:36:41;102052.63;;;7.50;100.00
57990;BME280;58373;51.824;5.564;2024-02-21T01:39:07;102050.13;;;7.48;100.00
57990;BME280;58373;51.824;5.564;2024-02-21T01:41:32;102053.53;;;7.49;100.00
57990;BME280;58373;51.824;5.564;2024-02-21T01:43:57;102055.06;;;7.53;100.00
57990;BME280;58373;51.824;5.564;2024-02-21T01:46:23;102055.28;;;7.48;100.00
57990;BME280;58373;51.824;5.564;2024-02-21T01:48:48;102054.22;;;7.52;100.00
57990;BME280;58373;51.824;5.564;2024-02-21T01:51:14;102053.53;;;7.49;100.00
57990;BME280;58373;51.824;5.564;2024-02-21T01:53:42;102044.13;;;7.48;100.00
57990;BME280;58373;51.824;5.564;2024-02-21T01:56:07;102043.22;;;7.49;100.00
57990;BME280;58373;51.824;5.564;2024-02-21T01:58:33;102043.22;;;7.49;100.00
57990;BME280;58373;51.824;5.564;2024-02-21T02:01:02;102038.03;;;7.49;100.00
57990;BME280;58373;51.824;5.564;2024-02-21T02:03:27;102041.38;;;7.51;100.00
57990;BME280;58373;51.824;5.564;2024-02-21T02:05:53;102037.22;;;7.48;100.00
57990;BME280;58373;51.824;5.564;2024-02-21T02:08:19;102036.38;;;7.48;100.00
57990;BME280;58373;51.824;5.564;2024-02-21T02:10:45;102045.34;;;7.58;100.00
57990;BME280;58373;51.824;5.564;2024-02-21T02:13:10;102032.88;;;7.49;100.00
57990;BME280;58373;51.824;5.564;2024-02-21T02:15:46;102026.19;;;7.44;100.00
57990;BME280;58373;51.824;5.564;2024-02-21T02:18:12;102029.69;;;7.43;100.00
57990;BME280;58373;51.824;5.564;2024-02-21T02:20:37;102019.22;;;7.47;100.00
57990;BME280;58373;51.824;5.564;2024-02-21T02:23:05;102025.34;;;7.44;100.00
57990;BME280;58373;51.824;5.564;2024-02-21T02:25:32;102021.81;;;7.47;100.00
57990;BME280;58373;51.824;5.564;2024-02-21T02:27:57;102014.19;;;7.43;100.00
57990;BME280;58373;51.824;5.564;2024-02-21T02:30:22;102003.75;;;7.47;100.00
57990;BME280;58373;51.824;5.564;2024-02-21T02:32:47;102007.25;;;7.45;100.00
57990;BME280;58373;51.824;5.564;2024-02-21T02:35:13;102003.03;;;7.43;100.00
57990;BME280;58373;51.824;5.564;2024-02-21T02:37:38;101997.81;;;7.44;100.00
57990;BME280;58373;51.824;5.564;2024-02-21T02:40:04;101998.06;;;7.40;100.00
57990;BME280;58373;51.824;5.564;2024-02-21T02:42:29;101986.59;;;7.45;100.00
57990;BME280;58373;51.824;5.564;2024-02-21T02:44:55;101989.59;;;7.54;100.00
57990;BME280;58373;51.824;5.564;2024-02-21T02:47:22;102000.56;;;7.41;100.00
57990;BME280;58373;51.824;5.564;2024-02-21T02:49:47;101995.38;;;7.41;100.00
57990;BME280;58373;51.824;5.564;2024-02-21T02:52:15;101996.22;;;7.42;100.00
57990;BME280;58373;51.824;5.564;2024-02-21T02:54:40;101993.56;;;7.43;100.00
57990;BME280;58373;51.824;5.564;2024-02-21T02:57:06;101980.66;;;7.43;100.00
57990;BME280;58373;51.824;5.564;2024-02-21T02:59:32;101984.22;;;7.41;100.00
57990;BME280;58373;51.824;5.564;2024-02-21T03:01:57;101975.66;;;7.40;100.00
57990;BME280;58373;51.824;5.564;2024-02-21T03:04:22;101973.91;;;7.41;100.00
57990;BME280;58373;51.824;5.564;2024-02-21T03:06:48;101967.91;;;7.40;100.00
57990;BME280;58373;51.824;5.564;2024-02-21T03:09:13;101961.84;;;7.41;100.00
57990;BME280;58373;51.824;5.564;2024-02-21T03:11:40;101966.06;;;7.42;100.00
57990;BME280;58373;51.824;5.564;2024-02-21T03:14:08;101961.75;;;7.43;100.00
57990;BME280;58373;51.824;5.564;2024-02-21T03:16:33;101962.75;;;7.40;100.00
57990;BME280;58373;51.824;5.564;2024-02-21T03:18:58;101959.38;;;7.38;100.00
57990;BME280;58373;51.824;5.564;2024-02-21T03:21:24;101962.59;;;7.43;100.00
57990;BME280;58373;51.824;5.564;2024-02-21T03:23:49;101964.25;;;7.44;100.00
57990;BME280;58373;51.824;5.564;2024-02-21T03:26:16;101957.28;;;7.47;100.00
57990;BME280;58373;51.824;5.564;2024-02-21T03:28:42;101945.28;;;7.45;100.00
57990;BME280;58373;51.824;5.564;2024-02-21T03:31:10;101953.31;;;7.39;100.00
57990;BME280;58373;51.824;5.564;2024-02-21T03:33:35;101938.75;;;7.38;100.00
57990;BME280;58373;51.824;5.564;2024-02-21T03:36:00;101932.75;;;7.38;100.00
57990;BME280;58373;51.824;5.564;2024-02-21T03:38:26;101934.28;;;7.42;100.00
57990;BME280;58373;51.824;5.564;2024-02-21T03:40:51;101930.09;;;7.39;100.00
57990;BME280;58373;51.824;5.564;2024-02-21T03:43:16;101921.44;;;7.40;100.00
57990;BME280;58373;51.824;5.564;2024-02-21T03:45:41;101919.94;;;7.36;100.00
57990;BME280;58373;51.824;5.564;2024-02-21T03:48:07;101919.94;;;7.36;100.00
57990;BME280;58373;51.824;5.564;2024-02-21T03:50:32;101916.44;;;7.37;100.00
57990;BME280;58373;51.824;5.564;2024-02-21T03:52:57;101921.59;;;7.37;100.00
57990;BME280;58373;51.824;5.564;2024-02-21T03:55:22;101919.94;;;7.36;100.00
57990;BME280;58373;51.824;5.564;2024-02-21T03:57:47;101911.13;;;7.40;100.00
57990;BME280;58373;51.824;5.564;2024-02-21T04:00:13;101918.09;;;7.38;100.00
57990;BME280;58373;51.824;5.564;2024-02-21T04:02:38;101907.94;;;7.35;100.00
57990;BME280;58373;51.824;5.564;2024-02-21T04:05:03;101907.03;;;7.36;100.00
57990;BME280;58373;51.824;5.564;2024-02-21T04:07:29;101916.28;;;7.40;100.00
57990;BME280;58373;51.824;5.564;2024-02-21T04:09:54;101910.53;;;7.35;100.00
57990;BME280;58373;51.824;5.564;2024-02-21T04:12:19;101912.09;;;7.38;100.00
57990;BME280;58373;51.824;5.564;2024-02-21T04:14:44;101911.44;;;7.34;100.00
57990;BME280;58373;51.824;5.564;2024-02-21T04:17:10;101911.44;;;7.34;100.00
57990;BME280;58373;51.824;5.564;2024-02-21T04:19:35;101907.09;;;7.35;100.00
57990;BME280;58373;51.824;5.564;2024-02-21T04:22:00;101918.09;;;7.38;100.00
57990;BME280;58373;51.824;5.564;2024-02-21T04:24:25;101909.59;;;7.36;100.00
57990;BME280;58373;51.824;5.564;2024-02-21T04:26:50;101906.28;;;7.34;100.00
57990;BME280;58373;51.824;5.564;2024-02-21T04:29:16;101902.78;;;7.35;100.00
57990;BME280;58373;51.824;5.564;2024-02-21T04:31:41;101901.13;;;7.34;100.00
57990;BME280;58373;51.824;5.564;2024-02-21T04:34:06;101896.84;;;7.33;100.00
57990;BME280;58373;51.824;5.564;2024-02-21T04:36:31;101887.28;;;7.35;100.00
57990;BME280;58373;51.824;5.564;2024-02-21T04:38:56;101893.44;;;7.33;100.00
57990;BME280;58373;51.824;5.564;2024-02-21T04:41:22;101904.44;;;7.36;100.00
57990;BME280;58373;51.824;5.564;2024-02-21T04:43:47;101901.56;;;7.42;100.00
57990;BME280;58373;51.824;5.564;2024-02-21T04:46:13;101899.72;;;7.44;100.00
57990;BME280;58373;51.824;5.564;2024-02-21T04:48:38;101898.44;;;7.36;100.00
57990;BME280;58373;51.824;5.564;2024-02-21T04:51:03;101893.13;;;7.39;100.00
57990;BME280;58373;51.824;5.564;2024-02-21T04:53:29;101883.94;;;7.33;100.00
57990;BME280;58373;51.824;5.564;2024-02-21T04:55:54;101874.53;;;7.32;100.00
57990;BME280;58373;51.824;5.564;2024-02-21T04:58:19;101876.16;;;7.35;100.00
57990;BME280;58373;51.824;5.564;2024-02-21T05:00:44;101880.47;;;7.34;100.00
57990;BME280;58373;51.824;5.564;2024-02-21T05:03:09;101876.16;;;7.35;100.00
57990;BME280;58373;51.824;5.564;2024-02-21T05:05:34;101865.13;;;7.31;100.00
57990;BME280;58373;51.824;5.564;2024-02-21T05:08:00;101854.06;;;7.29;100.00
57990;BME280;58373;51.824;5.564;2024-02-21T05:10:26;101853.16;;;7.30;100.00
57990;BME280;58373;51.824;5.564;2024-02-21T05:12:51;101853.16;;;7.30;100.00
57990;BME280;58373;51.824;5.564;2024-02-21T05:15:16;101852.97;;;7.33;100.00
57990;BME280;58373;51.824;5.564;2024-02-21T05:17:41;101862.56;;;7.31;100.00
57990;BME280;58373;51.824;5.564;2024-02-21T05:20:08;101861.81;;;7.29;100.00
57990;BME280;58373;51.824;5.564;2024-02-21T05:22:33;101854.13;;;7.28;100.00
57990;BME280;58373;51.824;5.564;2024-02-21T05:24:58;101845.53;;;7.27;100.00
57990;BME280;58373;51.824;5.564;2024-02-21T05:27:23;101836.97;;;7.27;100.00
57990;BME280;58373;51.824;5.564;2024-02-21T05:29:48;101839.47;;;7.28;100.00
57990;BME280;58373;51.824;5.564;2024-02-21T05:32:14;101827.47;;;7.27;100.00
57990;BME280;58373;51.824;5.564;2024-02-21T05:34:39;101818.00;;;7.28;100.00
57990;BME280;58373;51.824;5.564;2024-02-21T05:37:04;101820.66;;;7.26;100.00
57990;BME280;58373;51.824;5.564;2024-02-21T05:39:30;101819.75;;;7.27;100.00
57990;BME280;58373;51.824;5.564;2024-02-21T05:41:55;101820.53;;;7.29;100.00
57990;BME280;58373;51.824;5.564;2024-02-21T05:44:21;101815.34;;;7.29;100.00
57990;BME280;58373;51.824;5.564;2024-02-21T05:46:47;101812.84;;;7.28;100.00
57990;BME280;58373;51.824;5.564;2024-02-21T05:49:12;101803.34;;;7.28;100.00
57990;BME280;58373;51.824;5.564;2024-02-21T05:51:37;101803.34;;;7.28;100.00
57990;BME280;58373;51.824;5.564;2024-02-21T05:54:02;101794.84;;;7.26;100.00
57990;BME280;58373;51.824;5.564;2024-02-21T05:56:28;101785.47;;;7.25;100.00
57990;BME280;58373;51.824;5.564;2024-02-21T05:58:53;101790.63;;;7.25;100.00
57990;BME280;58373;51.824;5.564;2024-02-21T06:01:18;101782.88;;;7.25;100.00
57990;BME280;58373;51.824;5.564;2024-02-21T06:03:44;101791.53;;;7.24;100.00
57990;BME280;58373;51.824;5.564;2024-02-21T06:06:09;101784.72;;;7.23;100.00
57990;BME280;58373;51.824;5.564;2024-02-21T06:08:34;101779.56;;;7.23;100.00
57990;BME280;58373;51.824;5.564;2024-02-21T06:10:59;101779.56;;;7.23;100.00
57990;BME280;58373;51.824;5.564;2024-02-21T06:13:24;101788.19;;;7.22;100.00
57990;BME280;58373;51.824;5.564;2024-02-21T06:15:50;101776.97;;;7.23;100.00
57990;BME280;58373;51.824;5.564;2024-02-21T06:18:16;101771.88;;;7.22;100.00
57990;BME280;58373;51.824;5.564;2024-02-21T06:20:42;101769.38;;;7.20;100.00
57990;BME280;58373;51.824;5.564;2024-02-21T06:23:08;101769.38;;;7.20;100.00
57990;BME280;58373;51.824;5.564;2024-02-21T06:25:33;101768.47;;;7.21;100.00
57990;BME280;58373;51.824;5.564;2024-02-21T06:27:58;101765.06;;;7.21;100.00
57990;BME280;58373;51.824;5.564;2024-02-21T06:30:23;101772.88;;;7.19;100.00
57990;BME280;58373;51.824;5.564;2024-02-21T06:32:49;101772.69;;;7.22;100.00
57990;BME280;58373;51.824;5.564;2024-02-21T06:35:14;101776.19;;;7.21;100.00
57990;BME280;58373;51.824;5.564;2024-02-21T06:37:39;101775.47;;;7.19;100.00
57990;BME280;58373;51.824;5.564;2024-02-21T06:40:04;101772.88;;;7.19;100.00
57990;BME280;58373;51.824;5.564;2024-02-21T06:42:30;101766.06;;;7.18;100.00
57990;BME280;58373;51.824;5.564;2024-02-21T06:44:55;101771.22;;;7.18;100.00
57990;BME280;58373;51.824;5.564;2024-02-21T06:47:21;101776.19;;;7.21;100.00
57990;BME280;58373;51.824;5.564;2024-02-21T06:49:49;101773.03;;;7.16;100.00
57990;BME280;58373;51.824;5.564;2024-02-21T06:52:17;101773.03;;;7.16;100.00
57990;BME280;58373;51.824;5.564;2024-02-21T06:54:42;101773.28;;;7.27;100.00
57990;BME280;58373;51.824;5.564;2024-02-21T06:57:07;101770.28;;;7.19;100.00
57990;BME280;58373;51.824;5.564;2024-02-21T06:59:32;101770.22;;;7.21;100.00
57990;BME280;58373;51.824;5.564;2024-02-21T07:01:58;101760.22;;;7.14;100.00
57990;BME280;58373;51.824;5.564;2024-02-21T07:04:23;101759.38;;;7.14;100.00
57990;BME280;58373;51.824;5.564;2024-02-21T07:06:48;101762.78;;;7.14;100.00
57990;BME280;58373;51.824;5.564;2024-02-21T07:09:13;101763.53;;;7.16;100.00
57990;BME280;58373;51.824;5.564;2024-02-21T07:11:38;101761.72;;;7.18;100.00
57990;BME280;58373;51.824;5.564;2024-02-21T07:14:04;101752.38;;;7.16;100.00
57990;BME280;58373;51.824;5.564;2024-02-21T07:16:29;101757.41;;;7.19;100.00
57990;BME280;58373;51.824;5.564;2024-02-21T07:18:55;101752.38;;;7.16;100.00
57990;BME280;58373;51.824;5.564;2024-02-21T07:21:20;101748.06;;;7.16;100.00
57990;BME280;58373;51.824;5.564;2024-02-21T07:23:45;101742.06;;;7.16;100.00
57990;BME280;58373;51.824;5.564;2024-02-21T07:26:10;101733.59;;;7.14;100.00
57990;BME280;58373;51.824;5.564;2024-02-21T07:28:35;101736.91;;;7.16;100.00
57990;BME280;58373;51.824;5.564;2024-02-21T07:31:00;101732.53;;;7.18;100.00
57990;BME280;58373;51.824;5.564;2024-02-21T07:33:26;101719.63;;;7.18;100.00
57990;BME280;58373;51.824;5.564;2024-02-21T07:35:51;101724.78;;;7.18;100.00
57990;BME280;58373;51.824;5.564;2024-02-21T07:38:16;101724.94;;;7.15;100.00
57990;BME280;58373;51.824;5.564;2024-02-21T07:40:44;101720.53;;;7.17;100.00
57990;BME280;58373;51.824;5.564;2024-02-21T07:43:09;101719.63;;;7.18;100.00
57990;BME280;58373;51.824;5.564;2024-02-21T07:45:34;101712.63;;;7.20;100.00
57990;BME280;58373;51.824;5.564;2024-02-21T07:48:00;101710.97;;;7.19;100.00
57990;BME280;58373;51.824;5.564;2024-02-21T07:50:25;101700.63;;;7.19;100.00
57990;BME280;58373;51.824;5.564;2024-02-21T07:52:50;101701.56;;;7.18;100.00
57990;BME280;58373;51.824;5.564;2024-02-21T07:55:15;101696.22;;;7.21;100.00
57990;BME280;58373;51.824;5.564;2024-02-21T07:57:40;101685.91;;;7.21;100.00
57990;BME280;58373;51.824;5.564;2024-02-21T08:00:06;101685.06;;;7.21;100.00
57990;BME280;58373;51.824;5.564;2024-02-21T08:02:34;101673.81;;;7.22;100.00
57990;BME280;58373;51.824;5.564;2024-02-21T08:04:59;101672.16;;;7.21;100.00
57990;BME280;58373;51.824;5.564;2024-02-21T08:07:24;101673.81;;;7.22;100.00
57990;BME280;58373;51.824;5.564;2024-02-21T08:09:50;101673.81;;;7.22;100.00
57990;BME280;58373;51.824;5.564;2024-02-21T08:12:15;101671.19;;;7.23;100.00
57990;BME280;58373;51.824;5.564;2024-02-21T08:14:40;101668.53;;;7.25;100.00
57990;BME280;58373;51.824;5.564;2024-02-21T08:17:16;101662.53;;;7.24;100.00
57990;BME280;58373;51.824;5.564;2024-02-21T08:19:50;101660.69;;;7.26;100.00
57990;BME280;58373;51.824;5.564;2024-02-21T08:22:15;101674.31;;;7.28;100.00
57990;BME280;58373;51.824;5.564;2024-02-21T08:24:41;101664.00;;;7.28;100.00
57990;BME280;58373;51.824;5.564;2024-02-21T08:27:08;101650.22;;;7.29;100.00
57990;BME280;58373;51.824;5.564;2024-02-21T08:29:41;101651.88;;;7.30;100.00
57990;BME280;58373;51.824;5.564;2024-02-21T08:32:06;101650.03;;;7.32;100.00
57990;BME280;58373;51.824;5.564;2024-02-21T08:34:31;101663.69;;;7.34;100.00
57990;BME280;58373;51.824;5.564;2024-02-21T08:36:59;101655.97;;;7.34;100.00
57990;BME280;58373;51.824;5.564;2024-02-21T08:39:24;101643.78;;;7.36;100.00
57990;BME280;58373;51.824;5.564;2024-02-21T08:41:49;101651.53;;;7.36;100.00
57990;BME280;58373;51.824;5.564;2024-02-21T08:44:16;101629.88;;;7.39;100.00
57990;BME280;58373;51.824;5.564;2024-02-21T08:46:41;101639.38;;;7.38;100.00
57990;BME280;58373;51.824;5.564;2024-02-21T08:49:06;101637.38;;;7.43;100.00
57990;BME280;58373;51.824;5.564;2024-02-21T08:51:31;101629.28;;;7.50;100.00
57990;BME280;58373;51.824;5.564;2024-02-21T08:53:56;101623.53;;;7.44;100.00
57990;BME280;58373;51.824;5.564;2024-02-21T08:56:22;101615.72;;;7.46;100.00
57990;BME280;58373;51.824;5.564;2024-02-21T08:58:47;101613.06;;;7.48;100.00
57990;BME280;58373;51.824;5.564;2024-02-21T09:01:12;101600.88;;;7.50;100.00
57990;BME280;58373;51.824;5.564;2024-02-21T09:03:38;101600.88;;;7.50;100.00
57990;BME280;58373;51.824;5.564;2024-02-21T09:06:04;101592.22;;;7.51;100.00
57990;BME280;58373;51.824;5.564;2024-02-21T09:08:29;101597.22;;;7.54;100.00
57990;BME280;58373;51.824;5.564;2024-02-21T09:10:54;101591.97;;;7.55;100.00
57990;BME280;58373;51.824;5.564;2024-02-21T09:13:19;101600.38;;;7.59;100.00
57990;BME280;58373;51.824;5.564;2024-02-21T09:15:45;101595.22;;;7.59;100.00
57990;BME280;58373;51.824;5.564;2024-02-21T09:18:10;101592.44;;;7.62;100.00
57990;BME280;58373;51.824;5.564;2024-02-21T09:20:35;101587.22;;;7.63;100.00
57990;BME280;58373;51.824;5.564;2024-02-21T09:23:00;101581.88;;;7.66;100.00
57990;BME280;58373;51.824;5.564;2024-02-21T09:25:26;101589.34;;;7.71;100.00
57990;BME280;58373;51.824;5.564;2024-02-21T09:27:51;101593.69;;;7.70;100.00
57990;BME280;58373;51.824;5.564;2024-02-21T09:30:17;101588.34;;;7.73;100.00
57990;BME280;58373;51.824;5.564;2024-02-21T09:32:42;101579.69;;;7.75;100.00
57990;BME280;58373;51.824;5.564;2024-02-21T09:35:07;101577.00;;;7.76;100.00
57990;BME280;58373;51.824;5.564;2024-02-21T09:37:33;101573.50;;;7.77;100.00
57990;BME280;58373;51.824;5.564;2024-02-21T09:39:58;101564.66;;;7.81;100.00
57990;BME280;58373;51.824;5.564;2024-02-21T09:42:25;101568.81;;;7.84;100.00
57990;BME280;58373;51.824;5.564;2024-02-21T09:44:55;101555.78;;;7.85;100.00
57990;BME280;58373;51.824;5.564;2024-02-21T09:47:24;101553.97;;;7.87;100.00
57990;BME280;58373;51.824;5.564;2024-02-21T09:49:50;101547.78;;;7.90;100.00
57990;BME280;58373;51.824;5.564;2024-02-21T09:52:17;101538.28;;;7.90;100.00
57990;BME280;58373;51.824;5.564;2024-02-21T09:54:44;101531.31;;;7.92;100.00
57990;BME280;58373;51.824;5.564;2024-02-21T09:57:10;101532.94;;;7.93;100.00
57990;BME280;58373;51.824;5.564;2024-02-21T09:59:36;101527.78;;;7.93;100.00
57990;BME280;58373;51.824;5.564;2024-02-21T10:02:02;101520.03;;;7.93;100.00
57990;BME280;58373;51.824;5.564;2024-02-21T10:04:27;101524.28;;;7.94;100.00
57990;BME280;58373;51.824;5.564;2024-02-21T10:06:53;101506.28;;;7.93;100.00
57990;BME280;58373;51.824;5.564;2024-02-21T10:09:22;101500.47;;;7.89;100.00
57990;BME280;58373;51.824;5.564;2024-02-21T10:11:52;101493.00;;;7.85;100.00
57990;BME280;58373;51.824;5.564;2024-02-21T10:14:18;101485.53;;;7.80;100.00
57990;BME280;58373;51.824;5.564;2024-02-21T10:16:43;101483.84;;;7.79;100.00
57990;BME280;58373;51.824;5.564;2024-02-21T10:19:16;101469.38;;;7.77;100.00
57990;BME280;58373;51.824;5.564;2024-02-21T10:21:41;101468.81;;;7.71;100.00
57990;BME280;58373;51.824;5.564;2024-02-21T10:24:06;101467.28;;;7.69;100.00
57990;BME280;58373;51.824;5.564;2024-02-21T10:26:32;101463.94;;;7.67;100.00
57990;BME280;58373;51.824;5.564;2024-02-21T10:28:57;101446.78;;;7.66;100.00
57990;BME280;58373;51.824;5.564;2024-02-21T10:31:28;101446.97;;;7.63;100.00
57990;BME280;58373;51.824;5.564;2024-02-21T10:33:54;101443.47;;;7.64;100.00
57990;BME280;58373;51.824;5.564;2024-02-21T10:36:20;101445.13;;;7.65;100.00
57990;BME280;58373;51.824;5.564;2024-02-21T10:38:45;101439.97;;;7.65;100.00
57990;BME280;58373;51.824;5.564;2024-02-21T10:41:13;101423.44;;;7.67;100.00
57990;BME280;58373;51.824;5.564;2024-02-21T10:43:40;101412.13;;;7.70;100.00
57990;BME280;58373;51.824;5.564;2024-02-21T10:46:11;101404.09;;;7.75;100.00
57990;BME280;58373;51.824;5.564;2024-02-21T10:48:43;101399.56;;;7.78;100.00
57990;BME280;58373;51.824;5.564;2024-02-21T10:51:16;101378.72;;;7.81;100.00
57990;BME280;58373;51.824;5.564;2024-02-21T10:58:41;101335.19;;;7.89;100.00
57990;BME280;58373;51.824;5.564;2024-02-21T11:01:07;101327.31;;;7.91;100.00
57990;BME280;58373;51.824;5.564;2024-02-21T11:03:33;101324.66;;;7.92;100.00
57990;BME280;58373;51.824;5.564;2024-02-21T11:05:58;101326.31;;;7.93;100.00
57990;BME280;58373;51.824;5.564;2024-02-21T11:08:24;101327.81;;;7.97;100.00
57990;BME280;58373;51.824;5.564;2024-02-21T11:10:56;101345.66;;;8.01;100.00
57990;BME280;58373;51.824;5.564;2024-02-21T11:13:29;101349.91;;;8.02;100.00
57990;BME280;58373;51.824;5.564;2024-02-21T11:16:10;101361.06;;;8.02;100.00
57990;BME280;58373;51.824;5.564;2024-02-21T11:18:36;101372.06;;;8.06;100.00
57990;BME280;58373;51.824;5.564;2024-02-21T11:21:02;101368.53;;;8.07;100.00
57990;BME280;58373;51.824;5.564;2024-02-21T11:23:29;101351.28;;;8.07;100.00
57990;BME280;58373;51.824;5.564;2024-02-21T11:26:10;101358.03;;;8.10;100.00
57990;BME280;58373;51.824;5.564;2024-02-21T11:28:44;101342.31;;;8.13;100.00
57990;BME280;58373;51.824;5.564;2024-02-21T11:31:13;101333.63;;;8.14;100.00
57990;BME280;58373;51.824;5.564;2024-02-21T11:33:41;101317.94;;;8.17;100.00
57990;BME280;58373;51.824;5.564;2024-02-21T11:36:10;101329.94;;;8.18;100.00
57990;BME280;58373;51.824;5.564;2024-02-21T11:38:35;101316.09;;;8.19;100.00
57990;BME280;58373;51.824;5.564;2024-02-21T11:41:01;101322.91;;;8.20;100.00
57990;BME280;58373;51.824;5.564;2024-02-21T11:43:26;101324.59;;;8.21;100.00
57990;BME280;58373;51.824;5.564;2024-02-21T11:45:58;101311.75;;;8.19;100.00
57990;BME280;58373;51.824;5.564;2024-02-21T11:48:23;101304.78;;;8.34;100.00
57990;BME280;58373;51.824;5.564;2024-02-21T11:50:55;101295.03;;;8.25;100.00
57990;BME280;58373;51.824;5.564;2024-02-21T11:53:21;101288.44;;;8.34;100.00
57990;BME280;58373;51.824;5.564;2024-02-21T11:55:46;101280.97;;;8.29;100.00
57990;BME280;58373;51.824;5.564;2024-02-21T11:58:11;101260.31;;;8.29;100.00
57990;BME280;58373;51.824;5.564;2024-02-21T12:00:37;101261.97;;;8.30;100.00
57990;BME280;58373;51.824;5.564;2024-02-21T12:03:02;101244.69;;;8.31;100.00
57990;BME280;58373;51.824;5.564;2024-02-21T12:05:28;101229.94;;;8.33;100.00
57990;BME280;58373;51.824;5.564;2024-02-21T12:07:53;101199.56;;;8.36;100.00
57990;BME280;58373;51.824;5.564;2024-02-21T12:10:19;101214.66;;;8.42;100.00
57990;BME280;58373;51.824;5.564;2024-02-21T12:12:45;101203.19;;;8.46;100.00
57990;BME280;58373;51.824;5.564;2024-02-21T12:15:10;101202.06;;;8.50;100.00
57990;BME280;58373;51.824;5.564;2024-02-21T12:17:36;101184.50;;;8.56;100.00
57990;BME280;58373;51.824;5.564;2024-02-21T12:20:01;101186.78;;;8.60;100.00
57990;BME280;58373;51.824;5.564;2024-02-21T12:22:29;101171.69;;;8.67;100.00
57990;BME280;58373;51.824;5.564;2024-02-21T12:24:57;101167.94;;;8.71;100.00
57990;BME280;58373;51.824;5.564;2024-02-21T12:27:22;101159.03;;;8.75;100.00
57990;BME280;58373;51.824;5.564;2024-02-21T12:29:48;101148.50;;;8.78;100.00
57990;BME280;58373;51.824;5.564;2024-02-21T12:32:14;101146.63;;;8.80;100.00
57990;BME280;58373;51.824;5.564;2024-02-21T12:34:39;101144.75;;;8.82;100.00
57990;BME280;58373;51.824;5.564;2024-02-21T12:37:04;101146.41;;;8.83;100.00
57990;BME280;58373;51.824;5.564;2024-02-21T12:39:29;101136.13;;;8.94;100.00
57990;BME280;58373;51.824;5.564;2024-02-21T12:41:54;101125.06;;;8.92;100.00
57990;BME280;58373;51.824;5.564;2024-02-21T12:44:21;101114.97;;;8.89;100.00
57990;BME280;58373;51.824;5.564;2024-02-21T12:46:47;101094.25;;;8.89;100.00
57990;BME280;58373;51.824;5.564;2024-02-21T12:49:16;101095.09;;;8.90;100.00
57990;BME280;58373;51.824;5.564;2024-02-21T12:51:42;101086.38;;;8.91;100.00